Terminal Aerodrome Forecast
Issued by NWS

Home | Current Version | Previous Version | Graphics & Text | Print | Product List | Glossary On
Versions: 1 2 3 4 5 6 7 8 9 10 11 12 13 14 15 16 17 18 19 20 21 22 23 24 25 26 27 28 29 30 31 32
000
FTUS43 KGRB 271200 AAA
TAFRHI
TAF AMD
KRHI 271233Z 2713/2812 33004KT P6SM SCT020 SCT035
      TEMPO 2713/2714 4SM -SHSN BKN020
     FM271500 35006KT P6SM SCT030 SCT040
     FM272200 VRB03KT P6SM SKC=

USA.gov is the U.S. government's official web portal to all federal, state and local government web resources and services.